createdAt,value
2022-08-21T00:02:01.153Z,99925.27
2022-08-21T00:04:34.353Z,99920.92
2022-08-21T00:07:07.740Z,99921.83
2022-08-21T00:09:42.184Z,99915.69
2022-08-21T00:12:15.973Z,99925.41
2022-08-21T00:14:49.722Z,99917.52
2022-08-21T00:17:23.614Z,99914.89
2022-08-21T00:19:56.856Z,99921.93
2022-08-21T00:22:30.122Z,99919.31
2022-08-21T00:25:03.746Z,99914.93
2022-08-21T00:27:37.727Z,99907.03
2022-08-21T00:30:23.309Z,99905.34
2022-08-21T00:32:50.088Z,99916.81
2022-08-21T00:35:26.400Z,99912.41
2022-08-21T00:38:00.891Z,99903.64
2022-08-21T00:40:37.180Z,99894.01
2022-08-21T00:43:13.176Z,99901.06
2022-08-21T00:45:46.657Z,99901.09
2022-08-21T00:48:20.504Z,99895.84
2022-08-21T00:50:57.243Z,99900.23
2022-08-21T00:53:31.990Z,99904.66
2022-08-21T00:56:07.211Z,99900.29
2022-08-21T00:58:44.084Z,99898.53
2022-08-21T01:01:17.810Z,99894.17
2022-08-21T01:03:53.443Z,99892.44
2022-08-21T01:06:26.663Z,99889.84
2022-08-21T01:08:59.991Z,99901.28
2022-08-21T01:11:35.018Z,99898.65
2022-08-21T01:14:26.175Z,99901.30
2022-08-21T01:17:01.869Z,99907.45
2022-08-21T01:19:35.544Z,99896.05
2022-08-21T01:22:09.378Z,99909.23
2022-08-21T01:24:42.667Z,99910.11
2022-08-21T01:27:23.291Z,99910.09
2022-08-21T01:29:59.198Z,99903.05
2022-08-21T01:32:33.802Z,99915.34
2022-08-21T01:35:08.731Z,99914.48
2022-08-21T01:37:42.370Z,99905.69
2022-08-21T01:40:17.877Z,99910.12
2022-08-21T01:42:51.453Z,99903.12
2022-08-21T01:45:24.875Z,99899.63
2022-08-21T01:47:58.068Z,99904.05
2022-08-21T01:50:31.663Z,99906.69
2022-08-21T01:53:04.983Z,99897.02
2022-08-21T01:55:38.135Z,99909.33
2022-08-21T01:58:11.215Z,99897.97
2022-08-21T02:00:44.596Z,99912.84
2022-08-21T02:03:25.955Z,99915.52
2022-08-21T02:05:52.777Z,99906.77
2022-08-21T02:08:26.144Z,99904.09
2022-08-21T02:10:59.282Z,99907.61
2022-08-21T02:13:32.425Z,99908.48
2022-08-21T02:16:06.258Z,99916.39
2022-08-21T02:18:39.777Z,99914.63
2022-08-21T02:21:13.280Z,99908.47
2022-08-21T02:23:46.753Z,99916.39
2022-08-21T02:26:19.753Z,99903.23
2022-08-21T02:28:53.362Z,99919.95
2022-08-21T02:31:26.565Z,99928.74
2022-08-21T02:34:01.493Z,99933.16
2022-08-21T02:36:34.572Z,99936.68
2022-08-21T02:39:07.704Z,99926.16
2022-08-21T02:41:40.748Z,99928.78
2022-08-21T02:44:13.680Z,99930.55
2022-08-21T02:46:46.682Z,99925.30
2022-08-21T02:49:19.594Z,99927.03
2022-08-21T02:51:52.692Z,99928.78
2022-08-21T02:54:25.899Z,99928.78
2022-08-21T02:56:59.098Z,99909.47
2022-08-21T02:59:32.463Z,99925.27
2022-08-21T03:02:06.010Z,99920.86
2022-08-21T03:04:41.407Z,99926.09
2022-08-21T03:07:13.932Z,99922.55
2022-08-21T03:09:55.807Z,99916.42
2022-08-21T03:12:21.657Z,99926.94
2022-08-21T03:14:54.670Z,99915.56
2022-08-21T03:17:29.813Z,99914.67
2022-08-21T03:20:04.302Z,99925.20
2022-08-21T03:22:37.949Z,99916.41
2022-08-21T03:25:12.582Z,99919.05
2022-08-21T03:27:45.971Z,99930.48
2022-08-21T03:30:23.442Z,99940.16
2022-08-21T03:32:56.771Z,99937.51
2022-08-21T03:35:30.709Z,99936.59
2022-08-21T03:38:04.299Z,99943.62
2022-08-21T03:40:37.560Z,99944.48
2022-08-21T03:43:10.943Z,99952.38
2022-08-21T03:45:45.696Z,99946.22
2022-08-21T03:48:18.926Z,99941.79
2022-08-21T03:50:53.478Z,99945.28
2022-08-21T03:53:26.747Z,99947.87
2022-08-21T03:56:00.385Z,99945.16
2022-08-21T03:58:33.684Z,99948.64
2022-08-21T04:01:07.957Z,99946.83
2022-08-21T04:03:41.482Z,99945.04
2022-08-21T04:06:14.693Z,99943.25
2022-08-21T04:08:47.849Z,99932.64
2022-08-21T04:11:22.174Z,99931.73
2022-08-21T04:13:55.184Z,99934.32
2022-08-21T04:16:28.352Z,99928.12
2022-08-21T04:19:03.488Z,99936.00
2022-08-21T04:21:38.829Z,99931.50
2022-08-21T04:24:13.102Z,99936.75
2022-08-21T04:26:46.095Z,99931.38
2022-08-21T04:29:19.075Z,99927.80
2022-08-21T04:31:53.284Z,99926.79
2022-08-21T04:34:26.304Z,99929.27
2022-08-21T04:36:59.373Z,99925.72
2022-08-21T04:39:32.408Z,99933.55
2022-08-21T04:42:07.891Z,99924.73
2022-08-21T04:44:42.224Z,99932.49
2022-08-21T04:47:15.226Z,99942.17
2022-08-21T04:49:49.552Z,99936.02
2022-08-21T04:52:25.016Z,99941.29
2022-08-21T04:54:58.056Z,99935.91
2022-08-21T04:57:48.170Z,99937.59
2022-08-21T05:00:13.653Z,99937.59
2022-08-21T05:14:12.424Z,99936.11
2022-08-21T05:16:45.808Z,99944.22
2022-08-21T05:19:18.870Z,99940.48
2022-08-21T05:21:53.429Z,99939.43
2022-08-21T05:24:34.748Z,99925.09
2022-08-21T05:27:08.502Z,99922.23
2022-08-21T05:29:44.672Z,99924.70
2022-08-21T05:32:18.809Z,99926.28
2022-08-21T05:34:51.914Z,99934.13
2022-08-21T05:37:24.968Z,99930.52
2022-08-21T05:40:04.791Z,99919.72
2022-08-21T05:42:37.522Z,99920.55
2022-08-21T05:45:13.322Z,99905.65
2022-08-21T05:47:47.072Z,99922.88
2022-08-21T05:50:28.409Z,99917.39
2022-08-21T05:53:07.299Z,99925.30
2022-08-21T05:55:45.307Z,99926.13
2022-08-21T05:58:19.053Z,99918.76
2022-08-21T06:00:54.368Z,99924.87
2022-08-21T06:03:29.999Z,99920.20
2022-08-21T06:06:03.762Z,99919.98
2022-08-21T06:08:37.328Z,99914.31
2022-08-21T06:11:11.159Z,99908.95
2022-08-21T06:13:44.665Z,99912.38
2022-08-21T06:16:19.252Z,99909.59
2022-08-21T06:18:52.474Z,99914.59
2022-08-21T06:21:25.540Z,99909.91
2022-08-21T06:23:59.757Z,99892.00
2022-08-21T06:26:33.057Z,99889.20
2022-08-21T06:29:11.961Z,99891.67
2022-08-21T06:31:45.572Z,99898.53
2022-08-21T06:34:22.463Z,99900.84
2022-08-21T06:36:55.540Z,99898.58
2022-08-21T06:39:33.937Z,99894.72
2022-08-21T06:42:10.511Z,99889.33
2022-08-21T06:44:46.299Z,99893.64
2022-08-21T06:47:19.874Z,99893.77
2022-08-21T06:49:53.102Z,99880.73
2022-08-21T06:52:26.590Z,99878.77
2022-08-21T06:54:59.605Z,99880.13
2022-08-21T06:57:33.974Z,99884.50
2022-08-21T07:00:10.986Z,99876.03
2022-08-21T07:02:44.159Z,99879.53
2022-08-21T07:05:18.477Z,99878.47
2022-08-21T07:07:52.166Z,99871.31
2022-08-21T07:10:27.225Z,99869.46
2022-08-21T07:13:02.299Z,99872.33
2022-08-21T07:15:35.857Z,99867.86
2022-08-21T07:18:09.284Z,99859.27
2022-08-21T07:20:43.864Z,99867.15
2022-08-21T07:26:07.802Z,99864.66
2022-08-21T07:28:42.847Z,99857.43
2022-08-21T07:31:18.707Z,99864.45
2022-08-21T07:33:51.841Z,99867.39
2022-08-21T07:36:25.574Z,99869.75
2022-08-21T07:38:59.402Z,99872.99
2022-08-21T07:41:33.145Z,99863.89
2022-08-21T07:44:10.304Z,99861.06
2022-08-21T07:46:48.367Z,99844.05
2022-08-21T07:49:21.379Z,99854.55
2022-08-21T07:51:54.499Z,99866.03
2022-08-21T07:54:33.652Z,99836.62
2022-08-21T07:57:03.152Z,99852.25
2022-08-21T07:59:36.108Z,99859.99
2022-08-21T08:02:09.160Z,99856.91
2022-08-21T08:04:50.676Z,99838.83
2022-08-21T08:07:17.043Z,99861.28
2022-08-21T08:09:50.215Z,99859.00
2022-08-21T08:12:26.861Z,99853.45
2022-08-21T08:15:00.812Z,99850.75
2022-08-21T08:17:34.608Z,99856.23
2022-08-21T08:20:10.752Z,99838.77
2022-08-21T08:22:44.984Z,99849.84
2022-08-21T08:25:20.650Z,99857.88
2022-08-21T08:27:53.847Z,99843.20
2022-08-21T08:30:31.176Z,99844.16
2022-08-21T08:33:02.169Z,99826.87
2022-08-21T08:35:35.311Z,99809.94
2022-08-21T08:38:10.720Z,99827.63
2022-08-21T08:40:47.250Z,99818.24
2022-08-21T08:43:21.073Z,99820.92
2022-08-21T08:45:56.848Z,99763.80
2022-08-21T08:51:25.833Z,99812.75
2022-08-21T08:54:03.854Z,99778.40
2022-08-21T08:56:37.902Z,99783.60
2022-08-21T08:59:14.856Z,99782.38
2022-08-21T09:01:50.222Z,99803.80
2022-08-21T09:04:26.936Z,99768.58
2022-08-21T09:07:11.289Z,99823.88
2022-08-21T09:09:53.379Z,99818.27
2022-08-21T09:12:33.723Z,99777.66
2022-08-21T09:15:14.801Z,99821.13
2022-08-21T09:17:57.924Z,99820.98
2022-08-21T09:20:37.298Z,99795.17
2022-08-21T09:23:16.960Z,99814.50
2022-08-21T09:25:54.441Z,99794.55
2022-08-21T09:28:36.081Z,99808.00
2022-08-21T09:31:13.167Z,99805.88
2022-08-21T09:33:46.337Z,99781.77
2022-08-21T09:36:30.266Z,99806.64
2022-08-21T09:39:03.555Z,99819.41
2022-08-21T09:41:38.268Z,99811.17
2022-08-21T09:44:12.588Z,99810.11
2022-08-21T09:46:53.603Z,99774.03
2022-08-21T09:49:35.406Z,99805.03
2022-08-21T09:52:12.010Z,99813.87
2022-08-21T09:54:50.112Z,99809.91
2022-08-21T09:57:46.678Z,99815.11
2022-08-21T10:00:22.738Z,99801.72
2022-08-21T10:02:58.169Z,99800.84
2022-08-21T10:05:31.354Z,99807.62
2022-08-21T10:08:06.176Z,99808.20
2022-08-21T10:10:40.738Z,99802.00
2022-08-21T10:13:18.490Z,99813.52
2022-08-21T10:15:55.755Z,99810.83
2022-08-21T10:18:29.414Z,99796.20
2022-08-21T10:21:09.107Z,99803.70
2022-08-21T10:23:48.699Z,99800.07
2022-08-21T10:26:30.026Z,99799.78
2022-08-21T10:29:10.188Z,99793.22
2022-08-21T10:31:47.883Z,99783.16
2022-08-21T10:34:37.564Z,99795.20
2022-08-21T10:37:25.415Z,99773.08
2022-08-21T10:40:06.805Z,99781.81
2022-08-21T10:42:46.874Z,99784.23
2022-08-21T10:45:25.928Z,99782.13
2022-08-21T10:48:01.836Z,99786.66
2022-08-21T10:50:38.013Z,99780.64
2022-08-21T10:53:25.842Z,99748.98
2022-08-21T10:56:01.985Z,99782.73
2022-08-21T10:58:38.461Z,99787.84
2022-08-21T11:01:15.053Z,99773.31
2022-08-21T11:03:50.366Z,99788.82
2022-08-21T11:06:28.403Z,99777.02
2022-08-21T11:09:06.453Z,99788.13
2022-08-21T11:11:47.079Z,99775.62
2022-08-21T11:14:22.137Z,99748.83
2022-08-21T11:16:55.802Z,99766.34
2022-08-21T11:19:33.157Z,99771.34
2022-08-21T11:22:13.575Z,99769.16
2022-08-21T11:24:52.417Z,99771.91
2022-08-21T11:27:28.970Z,99762.09
2022-08-21T11:30:06.203Z,99766.99
2022-08-21T11:33:06.501Z,99758.72
2022-08-21T11:35:42.871Z,99761.39
2022-08-21T11:38:24.055Z,99757.75
2022-08-21T11:41:08.588Z,99740.59
2022-08-21T11:43:44.878Z,99755.17
2022-08-21T11:46:25.650Z,99738.41
2022-08-21T11:49:04.932Z,99759.50
2022-08-21T11:51:41.033Z,99775.13
2022-08-21T11:54:17.660Z,99766.47
2022-08-21T11:56:53.627Z,99763.34
2022-08-21T11:59:29.505Z,99755.98
2022-08-21T12:02:04.072Z,99761.78
2022-08-21T12:04:39.941Z,99770.97
2022-08-21T12:07:17.814Z,99756.32
2022-08-21T12:09:59.097Z,99753.30
2022-08-21T12:12:36.173Z,99770.97
2022-08-21T12:15:20.382Z,99756.07
2022-08-21T12:17:59.765Z,99764.41
2022-08-21T12:20:50.862Z,99760.41
2022-08-21T12:23:28.848Z,99758.53
2022-08-21T12:26:14.449Z,99749.30
2022-08-21T12:28:47.756Z,99749.57
2022-08-21T12:31:28.060Z,99758.66
2022-08-21T12:34:04.548Z,99729.93
2022-08-21T12:39:29.913Z,99724.38
2022-08-21T12:42:05.533Z,99742.91
2022-08-21T12:44:42.426Z,99741.00
2022-08-21T12:47:30.283Z,99701.77
2022-08-21T12:50:07.493Z,99735.20
2022-08-21T12:52:44.551Z,99736.03
2022-08-21T12:55:20.947Z,99746.52
2022-08-21T12:57:54.036Z,99745.62
2022-08-21T13:00:30.512Z,99714.38
2022-08-21T13:03:04.075Z,99714.89
2022-08-21T13:05:39.540Z,99728.95
2022-08-21T13:08:15.235Z,99749.31
2022-08-21T13:10:51.138Z,99742.65
2022-08-21T13:13:28.303Z,99747.88
2022-08-21T13:16:01.242Z,99683.83
2022-08-21T13:18:37.076Z,99703.36
2022-08-21T13:21:14.896Z,99741.17
2022-08-21T13:23:49.322Z,99733.48
2022-08-21T13:26:24.271Z,99739.24
2022-08-21T13:28:59.189Z,99736.62
2022-08-21T13:31:34.575Z,99751.67
2022-08-21T13:34:09.898Z,99724.31
2022-08-21T13:36:44.898Z,99737.45
2022-08-21T13:39:21.300Z,99733.84
2022-08-21T13:41:57.111Z,99721.38
2022-08-21T13:44:38.990Z,99736.70
2022-08-21T13:47:15.146Z,99722.34
2022-08-21T13:49:53.014Z,99707.94
2022-08-21T13:52:28.168Z,99705.14
2022-08-21T13:55:04.081Z,99714.22
2022-08-21T13:57:38.390Z,99708.70
2022-08-21T14:00:18.553Z,99721.70
2022-08-21T14:02:54.370Z,99729.33
2022-08-21T14:05:33.457Z,99703.22
2022-08-21T14:08:10.528Z,99727.86
2022-08-21T14:10:47.673Z,99707.97
2022-08-21T14:13:38.405Z,99720.02
2022-08-21T14:16:21.677Z,99726.23
2022-08-21T14:19:03.008Z,99725.00
2022-08-21T14:21:36.099Z,99720.76
2022-08-21T14:24:14.967Z,99706.47
2022-08-21T14:26:53.373Z,99714.71
2022-08-21T14:29:31.773Z,99715.70
2022-08-21T14:32:21.815Z,99677.21
2022-08-21T14:34:47.068Z,99695.16
2022-08-21T14:37:20.384Z,99700.72
2022-08-21T14:39:53.893Z,99703.48
2022-08-21T14:42:29.141Z,99698.59
2022-08-21T14:45:05.523Z,99694.23
2022-08-21T14:47:38.757Z,99699.03
2022-08-21T14:50:13.202Z,99695.70
2022-08-21T14:52:46.747Z,99720.84
2022-08-21T14:55:21.037Z,99707.38
2022-08-21T14:57:57.269Z,99726.03
2022-08-21T15:00:35.932Z,99714.22
2022-08-21T15:03:05.313Z,99722.67
2022-08-21T15:05:38.824Z,99728.84
2022-08-21T15:08:11.808Z,99720.48
2022-08-21T15:11:09.999Z,99728.16
2022-08-21T15:13:20.560Z,99726.81
2022-08-21T15:15:55.267Z,99715.29
2022-08-21T15:18:29.730Z,99712.28
2022-08-21T15:21:02.968Z,99720.84
2022-08-21T15:23:36.662Z,99722.97
2022-08-21T15:26:11.589Z,99728.16
2022-08-21T15:28:44.961Z,99715.10
2022-08-21T15:31:18.277Z,99720.54
2022-08-21T15:33:52.745Z,99714.47
2022-08-21T15:36:26.372Z,99710.77
2022-08-21T15:38:59.852Z,99725.01
2022-08-21T15:41:33.717Z,99715.48
2022-08-21T15:44:07.882Z,99714.04
2022-08-21T15:46:41.850Z,99716.23
2022-08-21T15:49:15.598Z,99715.80
2022-08-21T15:51:49.377Z,99714.39
2022-08-21T15:54:22.284Z,99718.16
2022-08-21T15:56:55.776Z,99718.41
2022-08-21T15:59:30.825Z,99706.27
2022-08-21T16:02:04.580Z,99710.96
2022-08-21T16:04:37.589Z,99711.04
2022-08-21T16:07:11.371Z,99700.50
2022-08-21T16:09:45.472Z,99701.71
2022-08-21T16:12:21.469Z,99706.41
2022-08-21T16:14:55.576Z,99702.23
2022-08-21T16:17:31.856Z,99708.86
2022-08-21T16:22:48.411Z,99701.77
2022-08-21T16:25:22.232Z,99699.95
2022-08-21T16:28:00.241Z,99701.89
2022-08-21T16:30:32.895Z,99705.61
2022-08-21T16:33:09.966Z,99708.51
2022-08-21T16:35:43.205Z,99699.21
2022-08-21T16:38:17.061Z,99694.58
2022-08-21T16:40:50.280Z,99689.27
2022-08-21T16:43:25.681Z,99688.61
2022-08-21T16:46:00.448Z,99678.33
2022-08-21T16:48:33.938Z,99677.73
2022-08-21T16:51:07.894Z,99685.96
2022-08-21T16:53:41.300Z,99683.73
2022-08-21T16:56:17.038Z,99677.83
2022-08-21T16:58:52.415Z,99694.02
2022-08-21T17:01:28.809Z,99686.22
2022-08-21T17:04:03.368Z,99688.14
2022-08-21T17:06:36.686Z,99692.88
2022-08-21T17:09:09.819Z,99688.59
2022-08-21T17:11:46.620Z,99696.53
2022-08-21T17:14:22.729Z,99697.53
2022-08-21T17:16:57.796Z,99695.03
2022-08-21T17:19:32.841Z,99697.77
2022-08-21T17:22:07.579Z,99695.30
2022-08-21T17:24:41.279Z,99700.75
2022-08-21T17:27:14.537Z,99703.72
2022-08-21T17:29:49.317Z,99707.44
2022-08-21T17:32:22.842Z,99686.24
2022-08-21T17:34:55.913Z,99689.08
2022-08-21T17:37:33.878Z,99700.87
2022-08-21T17:40:10.537Z,99684.87
2022-08-21T17:42:44.694Z,99685.79
2022-08-21T17:45:20.825Z,99693.66
2022-08-21T17:47:54.134Z,99690.30
2022-08-21T17:50:27.917Z,99684.97
2022-08-21T17:53:01.237Z,99689.48
2022-08-21T17:55:35.569Z,99698.46
2022-08-21T17:58:09.857Z,99703.17
2022-08-21T18:00:43.645Z,99698.92
2022-08-21T18:03:19.635Z,99705.23
2022-08-21T18:05:55.939Z,99699.05
2022-08-21T18:08:29.571Z,99707.97
2022-08-21T18:11:03.703Z,99709.81
2022-08-21T18:13:39.263Z,99707.34
2022-08-21T18:16:14.088Z,99716.38
2022-08-21T18:18:49.207Z,99711.14
2022-08-21T18:21:22.688Z,99704.95
2022-08-21T18:23:56.020Z,99707.62
2022-08-21T18:26:31.796Z,99714.77
2022-08-21T18:29:06.739Z,99698.87
2022-08-21T18:31:41.530Z,99713.02
2022-08-21T18:34:20.335Z,99709.53
2022-08-21T18:36:56.998Z,99713.11
2022-08-21T18:39:36.809Z,99714.06
2022-08-21T18:42:13.414Z,99713.23
2022-08-21T18:46:06.925Z,99704.10
2022-08-21T18:48:40.574Z,99714.50
2022-08-21T18:51:14.108Z,99715.54
2022-08-21T18:53:48.567Z,99713.92
2022-08-21T18:56:23.692Z,99712.30
2022-08-21T18:58:58.700Z,99714.25
2022-08-21T19:01:32.401Z,99722.27
2022-08-21T19:04:06.645Z,99726.03
2022-08-21T19:06:46.131Z,99720.89
2022-08-21T19:09:17.262Z,99721.92
2022-08-21T19:11:51.862Z,99725.50
2022-08-21T19:14:28.362Z,99731.86
2022-08-21T19:17:02.141Z,99712.70
2022-08-21T19:19:36.768Z,99722.12
2022-08-21T19:22:12.081Z,99723.88
2022-08-21T19:24:50.190Z,99728.34
2022-08-21T19:27:20.469Z,99728.34
2022-08-21T19:29:57.478Z,99723.02
2022-08-21T19:32:31.944Z,99725.73
2022-08-21T19:35:05.962Z,99731.06
2022-08-21T19:37:39.313Z,99727.57
2022-08-21T19:40:16.122Z,99724.05
2022-08-21T19:42:49.912Z,99725.88
2022-08-21T19:45:28.840Z,99724.31
2022-08-21T19:47:58.726Z,99728.75
2022-08-21T19:50:33.471Z,99720.88
2022-08-21T19:53:08.558Z,99727.17
2022-08-21T19:55:44.717Z,99729.95
2022-08-21T19:58:24.163Z,99716.73
2022-08-21T20:00:57.425Z,99722.94
2022-08-21T20:03:30.882Z,99719.39
2022-08-21T20:06:06.498Z,99719.39
2022-08-21T20:08:39.481Z,99720.37
2022-08-21T20:11:14.843Z,99718.67
2022-08-21T20:13:48.322Z,99720.48
2022-08-21T20:16:22.541Z,99723.08
2022-08-21T20:18:55.702Z,99718.73
2022-08-21T20:21:28.907Z,99718.93
2022-08-21T20:24:02.304Z,99725.34
2022-08-21T20:26:37.406Z,99717.61
2022-08-21T20:29:12.671Z,99720.41
2022-08-21T20:31:46.118Z,99722.34
2022-08-21T20:34:19.391Z,99723.36
2022-08-21T20:36:53.374Z,99726.02
2022-08-21T20:39:26.617Z,99729.59
2022-08-21T20:41:59.965Z,99727.98
2022-08-21T20:44:34.881Z,99727.14
2022-08-21T20:47:09.419Z,99720.05
2022-08-21T20:49:45.499Z,99728.11
2022-08-21T20:52:21.125Z,99724.76
2022-08-21T20:54:57.938Z,99723.25
2022-08-21T20:57:35.435Z,99728.84
2022-08-21T21:00:14.370Z,99730.72
2022-08-21T21:02:50.855Z,99730.80
2022-08-21T21:05:28.092Z,99736.32
2022-08-21T21:08:05.273Z,99736.49
2022-08-21T21:10:41.769Z,99734.01
2022-08-21T21:13:19.994Z,99738.59
2022-08-21T21:15:56.251Z,99729.88
2022-08-21T21:18:33.712Z,99736.25
2022-08-21T21:21:10.629Z,99730.98
2022-08-21T21:23:47.600Z,99730.25
2022-08-21T21:26:24.079Z,99727.67
2022-08-21T21:29:02.086Z,99719.17
2022-08-21T21:31:36.749Z,99727.94
2022-08-21T21:34:16.946Z,99726.28
2022-08-21T21:36:56.089Z,99729.10
2022-08-21T21:39:27.270Z,99733.67
2022-08-21T21:42:06.651Z,99729.31
2022-08-21T21:44:46.681Z,99729.41
2022-08-21T21:47:24.155Z,99724.00
2022-08-21T21:50:00.294Z,99723.30
2022-08-21T21:52:45.030Z,99730.22
2022-08-21T21:55:26.011Z,99731.31
2022-08-21T21:58:17.158Z,99728.72
2022-08-21T22:00:53.615Z,99729.56
2022-08-21T22:03:29.887Z,99727.75
2022-08-21T22:06:05.939Z,99732.11
2022-08-21T22:08:48.719Z,99724.16
2022-08-21T22:11:24.516Z,99721.44
2022-08-21T22:16:37.701Z,99728.41
2022-08-21T22:19:15.517Z,99727.81
2022-08-21T22:21:52.861Z,99740.09
2022-08-21T22:24:29.127Z,99727.66
2022-08-21T22:27:07.772Z,99719.64
2022-08-21T22:29:49.641Z,99716.13
2022-08-21T22:32:28.949Z,99715.23
2022-08-21T22:35:13.342Z,99723.34
2022-08-21T22:37:48.684Z,99716.50
2022-08-21T22:43:07.270Z,99722.76
2022-08-21T22:45:46.304Z,99726.41
2022-08-21T22:48:24.195Z,99721.10
2022-08-21T22:51:04.638Z,99725.45
2022-08-21T22:53:41.521Z,99724.66
2022-08-21T22:56:17.592Z,99722.20
2022-08-21T22:58:59.319Z,99724.99
2022-08-21T23:01:40.292Z,99726.89
2022-08-21T23:04:17.755Z,99726.09
2022-08-21T23:06:55.383Z,99726.18
2022-08-21T23:09:37.959Z,99722.68
2022-08-21T23:12:22.423Z,99729.65
2022-08-21T23:14:57.533Z,99730.69
2022-08-21T23:17:36.080Z,99739.69
2022-08-21T23:20:13.989Z,99746.80
2022-08-21T23:25:43.045Z,99742.15
2022-08-21T23:28:21.886Z,99741.77
2022-08-21T23:30:58.607Z,99741.55
2022-08-21T23:33:46.035Z,99750.41
2022-08-21T23:36:44.929Z,99745.09
2022-08-21T23:39:23.876Z,99741.63
2022-08-21T23:42:00.773Z,99746.98
2022-08-21T23:44:41.921Z,99745.32
2022-08-21T23:47:21.785Z,99747.20
2022-08-21T23:49:58.531Z,99750.04
2022-08-21T23:52:35.823Z,99743.06
2022-08-21T23:55:24.686Z,99746.66
2022-08-21T23:58:06.162Z,99751.96
